createdAt,value
2018-06-29T00:00:52.717Z,62.01
2018-06-29T00:01:53.038Z,62.04
2018-06-29T00:02:53.014Z,62.04
2018-06-29T00:03:53.186Z,61.85
2018-06-29T00:04:53.361Z,62.63
2018-06-29T00:05:53.537Z,62.24
2018-06-29T00:06:53.711Z,62.24
2018-06-29T00:07:53.884Z,62.53
2018-06-29T00:08:54.061Z,62.72
2018-06-29T00:10:46.313Z,63.01
2018-06-29T00:11:46.485Z,63.31
2018-06-29T00:12:46.665Z,62.92
2018-06-29T00:13:46.830Z,63.79
2018-06-29T00:14:47.000Z,63.79
2018-06-29T00:15:47.174Z,63.31
2018-06-29T00:16:47.348Z,62.88
2018-06-29T00:17:47.518Z,62.88
2018-06-29T00:18:47.689Z,63.76
2018-06-29T00:19:47.867Z,63.27
2018-06-29T00:20:48.050Z,63.76
2018-06-29T00:21:48.219Z,64.14
2018-06-29T00:22:48.386Z,63.95
2018-06-29T00:23:48.561Z,64.24
2018-06-29T00:24:48.731Z,63.95
2018-06-29T00:25:48.903Z,64.04
2018-06-29T00:26:49.077Z,64.14
2018-06-29T00:27:49.247Z,64.34
2018-06-29T00:28:49.416Z,63.95
2018-06-29T00:29:49.595Z,63.95
2018-06-29T00:30:49.764Z,64.34
2018-06-29T00:31:49.944Z,64.43
2018-06-29T00:32:50.116Z,64.04
2018-06-29T00:33:50.286Z,63.76
2018-06-29T00:34:50.468Z,64.34
2018-06-29T00:35:50.636Z,64.04
2018-06-29T00:36:50.882Z,63.82
2018-06-29T00:37:50.981Z,63.95
2018-06-29T00:38:51.154Z,63.85
2018-06-29T00:39:51.326Z,63.85
2018-06-29T00:40:51.506Z,64.31
2018-06-29T00:41:51.674Z,64.98
2018-06-29T00:42:51.848Z,64.98
2018-06-29T00:43:52.021Z,65.17
2018-06-29T00:44:52.196Z,64.89
2018-06-29T00:45:52.399Z,65.43
2018-06-29T00:46:52.564Z,65.53
2018-06-29T00:47:52.734Z,65.72
2018-06-29T00:48:52.912Z,65.72
2018-06-29T00:49:53.086Z,65.72
2018-06-29T00:50:53.267Z,65.72
2018-06-29T00:51:53.435Z,65.34
2018-06-29T00:52:53.613Z,66.11
2018-06-29T00:53:53.785Z,66.30
2018-06-29T00:54:53.952Z,66.11
2018-06-29T00:55:54.128Z,65.92
2018-06-29T00:56:54.297Z,66.11
2018-06-29T00:57:54.478Z,66.11
2018-06-29T00:58:54.651Z,65.53
2018-06-29T00:59:54.824Z,65.63
2018-06-29T01:00:55.008Z,65.24
2018-06-29T01:01:55.175Z,65.14
2018-06-29T01:02:55.740Z,64.95
2018-06-29T01:03:56.813Z,64.66
2018-06-29T01:04:55.696Z,65.24
2018-06-29T01:05:56.272Z,64.76
2018-06-29T01:06:56.496Z,64.66
2018-06-29T01:07:56.816Z,64.66
2018-06-29T01:08:56.783Z,64.95
2018-06-29T01:09:57.000Z,64.95
2018-06-29T01:10:57.148Z,65.14
2018-06-29T01:11:57.265Z,65.24
2018-06-29T01:12:57.455Z,64.76
2018-06-29T01:13:57.208Z,65.24
2018-06-29T01:14:57.382Z,64.85
2018-06-29T01:15:57.545Z,64.85
2018-06-29T01:16:57.839Z,64.85
2018-06-29T01:17:57.892Z,65.34
2018-06-29T01:18:58.061Z,64.85
2018-06-29T01:19:58.237Z,65.53
2018-06-29T01:20:58.407Z,65.69
2018-06-29T01:21:58.578Z,65.72
2018-06-29T01:22:58.745Z,65.63
2018-06-29T01:23:58.919Z,64.63
2018-06-29T01:24:59.099Z,65.59
2018-06-29T01:25:59.275Z,65.30
2018-06-29T01:26:59.447Z,65.43
2018-06-29T01:27:59.613Z,65.50
2018-06-29T01:28:59.783Z,65.40
2018-06-29T01:29:59.953Z,65.63
2018-06-29T01:31:00.127Z,65.20
2018-06-29T01:32:00.294Z,64.92
2018-06-29T01:33:00.468Z,64.85
2018-06-29T01:34:00.637Z,64.95
2018-06-29T01:35:00.814Z,65.05
2018-06-29T01:36:00.987Z,64.76
2018-06-29T01:37:01.162Z,64.66
2018-06-29T01:38:01.340Z,64.85
2018-06-29T01:39:01.520Z,64.63
2018-06-29T01:40:01.692Z,65.50
2018-06-29T01:41:01.863Z,65.59
2018-06-29T01:42:02.029Z,65.40
2018-06-29T01:43:02.200Z,65.20
2018-06-29T01:44:02.375Z,66.08
2018-06-29T01:45:02.545Z,66.75
2018-06-29T01:46:02.712Z,66.85
2018-06-29T01:47:02.890Z,66.85
2018-06-29T01:48:03.062Z,67.52
2018-06-29T01:49:03.234Z,68.10
2018-06-29T01:50:03.407Z,67.33
2018-06-29T01:51:03.577Z,67.62
2018-06-29T01:52:03.744Z,67.04
2018-06-29T01:53:03.913Z,67.52
2018-06-29T01:54:04.085Z,67.91
2018-06-29T01:55:04.264Z,67.78
2018-06-29T01:56:04.429Z,67.59
2018-06-29T01:57:04.605Z,67.40
2018-06-29T01:58:04.777Z,66.94
2018-06-29T01:59:04.951Z,67.14
2018-06-29T02:00:05.128Z,67.04
2018-06-29T02:01:05.297Z,66.75
2018-06-29T02:02:05.470Z,66.46
2018-06-29T02:03:05.649Z,66.75
2018-06-29T02:04:05.815Z,66.36
2018-06-29T02:05:05.992Z,66.94
2018-06-29T02:06:06.161Z,67.33
2018-06-29T02:07:06.333Z,66.94
2018-06-29T02:08:06.564Z,67.69
2018-06-29T02:09:06.676Z,67.52
2018-06-29T02:10:06.844Z,68.10
2018-06-29T02:11:07.017Z,67.91
2018-06-29T02:12:07.185Z,68.30
2018-06-29T02:13:07.355Z,68.20
2018-06-29T02:14:07.534Z,68.59
2018-06-29T02:15:07.701Z,68.59
2018-06-29T02:16:07.873Z,68.49
2018-06-29T02:17:08.039Z,66.94
2018-06-29T02:18:08.217Z,67.72
2018-06-29T02:19:08.399Z,68.20
2018-06-29T02:20:08.579Z,67.43
2018-06-29T02:21:08.745Z,67.33
2018-06-29T02:22:08.912Z,67.33
2018-06-29T02:23:09.085Z,67.14
2018-06-29T02:24:09.258Z,66.75
2018-06-29T02:25:09.430Z,67.14
2018-06-29T02:26:09.606Z,66.50
2018-06-29T02:27:09.772Z,66.59
2018-06-29T02:28:09.950Z,65.98
2018-06-29T02:29:10.144Z,66.11
2018-06-29T02:30:10.299Z,65.82
2018-06-29T02:31:10.470Z,65.30
2018-06-29T02:32:10.645Z,65.59
2018-06-29T02:33:10.816Z,66.46
2018-06-29T02:34:10.995Z,67.62
2018-06-29T02:35:11.161Z,68.46
2018-06-29T02:36:11.345Z,68.65
2018-06-29T02:37:11.528Z,68.75
2018-06-29T02:38:11.694Z,68.36
2018-06-29T02:39:11.871Z,68.55
2018-06-29T02:40:12.050Z,68.17
2018-06-29T02:41:12.207Z,68.46
2018-06-29T02:42:12.385Z,68.75
2018-06-29T02:43:12.564Z,68.26
2018-06-29T02:44:12.734Z,67.69
2018-06-29T02:45:12.912Z,68.07
2018-06-29T02:46:13.088Z,68.07
2018-06-29T02:47:13.257Z,68.26
2018-06-29T02:48:13.431Z,68.36
2018-06-29T02:49:13.601Z,68.26
2018-06-29T02:50:13.774Z,68.07
2018-06-29T02:51:13.948Z,68.36
2018-06-29T02:52:14.123Z,67.72
2018-06-29T02:53:14.290Z,67.88
2018-06-29T02:54:14.464Z,68.10
2018-06-29T02:55:14.637Z,68.30
2018-06-29T02:56:14.806Z,68.78
2018-06-29T02:57:14.975Z,68.78
2018-06-29T02:58:15.146Z,68.49
2018-06-29T02:59:15.320Z,68.49
2018-06-29T03:00:15.494Z,68.49
2018-06-29T03:01:15.664Z,68.30
2018-06-29T03:02:15.841Z,68.68
2018-06-29T03:03:16.011Z,68.30
2018-06-29T03:04:16.191Z,68.20
2018-06-29T03:05:16.364Z,67.82
2018-06-29T03:06:16.536Z,67.91
2018-06-29T03:07:16.705Z,67.62
2018-06-29T03:08:16.880Z,67.24
2018-06-29T03:09:17.049Z,67.88
2018-06-29T03:10:17.222Z,68.26
2018-06-29T03:11:17.389Z,68.46
2018-06-29T03:12:17.566Z,68.65
2018-06-29T03:13:17.734Z,68.07
2018-06-29T03:14:17.908Z,68.84
2018-06-29T03:15:18.090Z,68.36
2018-06-29T03:16:18.255Z,68.26
2018-06-29T03:17:18.436Z,68.36
2018-06-29T03:18:18.606Z,68.36
2018-06-29T03:19:18.779Z,69.04
2018-06-29T03:20:18.947Z,68.46
2018-06-29T03:21:19.116Z,68.17
2018-06-29T03:22:19.291Z,68.36
2018-06-29T03:23:19.471Z,68.65
2018-06-29T03:24:19.643Z,68.55
2018-06-29T03:25:19.886Z,68.55
2018-06-29T03:26:19.987Z,68.36
2018-06-29T03:27:20.157Z,68.55
2018-06-29T03:28:20.323Z,68.17
2018-06-29T03:29:20.493Z,68.65
2018-06-29T03:30:20.670Z,68.46
2018-06-29T03:31:20.846Z,68.36
2018-06-29T03:32:21.021Z,68.75
2018-06-29T03:33:21.190Z,68.94
2018-06-29T03:34:21.367Z,69.04
2018-06-29T03:35:21.541Z,69.04
2018-06-29T03:36:21.722Z,69.42
2018-06-29T03:37:21.885Z,69.62
2018-06-29T03:38:22.057Z,69.04
2018-06-29T03:39:22.224Z,69.42
2018-06-29T03:40:22.467Z,69.23
2018-06-29T03:41:22.563Z,69.42
2018-06-29T03:42:22.742Z,69.32
2018-06-29T03:43:22.920Z,68.94
2018-06-29T03:44:23.087Z,68.84
2018-06-29T03:45:23.259Z,68.55
2018-06-29T03:46:23.432Z,68.07
2018-06-29T03:47:23.597Z,68.98
2018-06-29T03:48:23.774Z,67.91
2018-06-29T03:49:23.973Z,67.91
2018-06-29T03:50:24.114Z,67.52
2018-06-29T03:51:24.286Z,67.24
2018-06-29T03:52:24.460Z,66.56
2018-06-29T03:53:24.631Z,66.85
2018-06-29T03:54:24.803Z,66.66
2018-06-29T03:55:24.967Z,66.36
2018-06-29T03:56:25.146Z,66.50
2018-06-29T03:57:25.320Z,66.66
2018-06-29T03:58:25.485Z,66.46
2018-06-29T03:59:25.657Z,65.63
2018-06-29T04:00:25.834Z,66.20
2018-06-29T04:01:26.004Z,65.34
2018-06-29T04:02:26.184Z,65.53
2018-06-29T04:03:26.365Z,65.34
2018-06-29T04:04:26.537Z,65.24
2018-06-29T04:05:26.704Z,65.27
2018-06-29T04:06:26.876Z,65.66
2018-06-29T04:07:27.061Z,65.08
2018-06-29T04:08:27.236Z,64.79
2018-06-29T04:09:27.408Z,64.89
2018-06-29T04:10:27.587Z,64.59
2018-06-29T04:11:27.756Z,64.98
2018-06-29T04:12:27.937Z,63.82
2018-06-29T04:13:28.089Z,64.40
2018-06-29T04:14:28.267Z,64.24
2018-06-29T04:15:28.435Z,64.53
2018-06-29T04:16:28.606Z,64.92
2018-06-29T04:17:28.778Z,64.72
2018-06-29T04:18:28.947Z,65.20
2018-06-29T04:19:29.123Z,65.11
2018-06-29T04:20:29.295Z,65.01
2018-06-29T04:21:29.466Z,65.11
2018-06-29T04:22:29.636Z,65.08
2018-06-29T04:23:29.806Z,64.89
2018-06-29T04:24:29.989Z,65.30
2018-06-29T04:25:30.164Z,64.62
2018-06-29T04:26:30.416Z,64.53
2018-06-29T04:27:30.508Z,64.72
2018-06-29T04:28:30.678Z,64.34
2018-06-29T04:29:30.849Z,65.11
2018-06-29T04:30:31.025Z,65.11
2018-06-29T04:31:31.196Z,64.21
2018-06-29T04:32:31.373Z,64.40
2018-06-29T04:33:31.546Z,65.01
2018-06-29T04:34:31.715Z,64.53
2018-06-29T04:35:31.890Z,63.85
2018-06-29T04:36:32.070Z,63.85
2018-06-29T04:37:32.248Z,65.01
2018-06-29T04:38:32.414Z,65.11
2018-06-29T04:39:32.586Z,64.04
2018-06-29T04:40:32.755Z,64.62
2018-06-29T04:41:32.928Z,64.53
2018-06-29T04:42:33.107Z,64.92
2018-06-29T04:43:33.274Z,65.01
2018-06-29T04:44:33.443Z,64.43
2018-06-29T04:45:33.617Z,64.24
2018-06-29T04:46:33.791Z,64.53
2018-06-29T04:47:33.962Z,64.75
2018-06-29T04:48:34.135Z,64.47
2018-06-29T04:49:34.308Z,64.56
2018-06-29T04:50:34.473Z,64.14
2018-06-29T04:51:34.644Z,64.56
2018-06-29T04:52:34.822Z,64.72
2018-06-29T04:53:34.993Z,64.43
2018-06-29T04:54:35.162Z,64.43
2018-06-29T04:55:35.337Z,64.04
2018-06-29T04:56:35.507Z,64.43
2018-06-29T04:57:35.674Z,63.85
2018-06-29T04:58:35.854Z,63.66
2018-06-29T04:59:36.022Z,64.24
2018-06-29T05:00:36.194Z,64.24
2018-06-29T05:01:36.375Z,64.72
2018-06-29T05:02:36.543Z,64.62
2018-06-29T05:03:36.715Z,63.85
2018-06-29T05:04:36.881Z,64.14
2018-06-29T05:05:37.056Z,64.24
2018-06-29T05:06:37.229Z,63.79
2018-06-29T05:07:37.408Z,63.98
2018-06-29T05:08:37.572Z,63.89
2018-06-29T05:09:37.744Z,63.89
2018-06-29T05:10:37.913Z,63.49
2018-06-29T05:11:38.083Z,63.69
2018-06-29T05:12:38.258Z,63.69
2018-06-29T05:13:38.440Z,63.98
2018-06-29T05:14:38.616Z,63.72
2018-06-29T05:15:38.788Z,63.43
2018-06-29T05:16:38.962Z,62.85
2018-06-29T05:17:39.136Z,63.14
2018-06-29T05:18:39.305Z,62.56
2018-06-29T05:19:39.475Z,62.07
2018-06-29T05:20:39.642Z,61.98
2018-06-29T05:21:39.821Z,62.27
2018-06-29T05:22:39.997Z,61.40
2018-06-29T05:23:40.168Z,61.98
2018-06-29T05:24:40.344Z,61.52
2018-06-29T05:25:40.931Z,61.14
2018-06-29T05:26:41.154Z,61.01
2018-06-29T05:27:40.900Z,61.82
2018-06-29T05:28:41.168Z,61.72
2018-06-29T05:29:41.244Z,62.10
2018-06-29T05:30:41.411Z,62.30
2018-06-29T05:31:41.580Z,62.59
2018-06-29T05:32:41.757Z,62.88
2018-06-29T05:33:41.932Z,62.01
2018-06-29T05:34:42.097Z,62.40
2018-06-29T05:35:42.275Z,62.49
2018-06-29T05:36:42.448Z,62.20
2018-06-29T05:37:42.622Z,62.59
2018-06-29T05:38:42.798Z,62.20
2018-06-29T05:39:42.976Z,62.20
2018-06-29T05:40:43.146Z,62.01
2018-06-29T05:41:43.389Z,62.88
2018-06-29T05:42:43.581Z,62.01
2018-06-29T05:43:43.663Z,62.23
2018-06-29T05:44:43.837Z,62.04
2018-06-29T05:45:44.009Z,62.72
2018-06-29T05:46:44.182Z,61.94
2018-06-29T05:47:44.350Z,62.23
2018-06-29T05:48:44.525Z,61.65
2018-06-29T05:49:44.720Z,61.17
2018-06-29T05:50:44.877Z,61.26
2018-06-29T05:51:45.072Z,60.97
2018-06-29T05:52:45.227Z,60.58
2018-06-29T05:53:45.401Z,60.88
2018-06-29T05:54:45.568Z,61.26
2018-06-29T05:55:45.746Z,60.97
2018-06-29T05:56:45.917Z,61.07
2018-06-29T05:57:46.096Z,60.58
2018-06-29T05:58:46.263Z,60.71
2018-06-29T05:59:46.436Z,60.32
2018-06-29T06:00:46.608Z,60.42
2018-06-29T06:01:46.782Z,60.71
2018-06-29T06:02:46.954Z,61.10
2018-06-29T06:03:47.125Z,61.19
2018-06-29T06:04:47.368Z,60.71
2018-06-29T06:05:47.477Z,61.00
2018-06-29T06:06:47.650Z,60.61
2018-06-29T06:07:47.827Z,61.00
2018-06-29T06:08:48.003Z,60.61
2018-06-29T06:09:48.176Z,61.00
2018-06-29T06:10:48.352Z,60.42
2018-06-29T06:11:48.527Z,59.84
2018-06-29T06:12:48.705Z,58.48
2018-06-29T06:13:48.889Z,58.87
2018-06-29T06:14:49.059Z,59.36
2018-06-29T06:15:49.237Z,59.67
2018-06-29T06:16:49.406Z,60.35
2018-06-29T06:17:49.585Z,59.67
2018-06-29T06:18:49.764Z,59.97
2018-06-29T06:19:49.938Z,59.19
2018-06-29T06:20:50.107Z,59.58
2018-06-29T06:21:50.314Z,59.58
2018-06-29T06:22:50.455Z,59.19
2018-06-29T06:23:50.628Z,58.80
2018-06-29T06:24:50.798Z,58.90
2018-06-29T06:25:50.976Z,58.70
2018-06-29T06:26:51.147Z,57.64
2018-06-29T06:27:51.318Z,56.96
2018-06-29T06:28:51.493Z,56.67
2018-06-29T06:29:51.665Z,56.37
2018-06-29T06:30:51.836Z,56.18
2018-06-29T06:31:52.011Z,56.01
2018-06-29T06:32:52.184Z,55.04
2018-06-29T06:33:52.360Z,54.85
2018-06-29T06:34:52.533Z,54.46
2018-06-29T06:35:52.708Z,54.56
2018-06-29T06:36:52.879Z,53.69
2018-06-29T06:37:53.055Z,53.69
2018-06-29T06:38:53.233Z,54.20
2018-06-29T06:39:53.407Z,55.07
2018-06-29T06:40:53.581Z,54.68
2018-06-29T06:41:53.759Z,54.68
2018-06-29T06:42:53.929Z,53.91
2018-06-29T06:43:54.101Z,53.32
2018-06-29T06:44:54.274Z,52.64
2018-06-29T06:45:54.459Z,53.13
2018-06-29T06:46:54.672Z,53.71
2018-06-29T06:47:54.795Z,53.81
2018-06-29T06:48:54.975Z,53.52
2018-06-29T06:49:55.146Z,53.61
2018-06-29T06:50:55.318Z,53.06
2018-06-29T06:51:55.489Z,52.45
2018-06-29T06:52:55.673Z,52.45
2018-06-29T06:53:55.853Z,52.64
2018-06-29T06:54:56.023Z,51.57
2018-06-29T06:55:56.202Z,51.57
2018-06-29T06:56:56.374Z,51.77
2018-06-29T06:57:56.548Z,52.94
2018-06-29T06:58:56.721Z,52.25
2018-06-29T06:59:56.890Z,52.76
2018-06-29T07:00:57.064Z,51.89
2018-06-29T07:01:57.240Z,51.60
2018-06-29T07:02:57.436Z,51.40
2018-06-29T07:03:57.607Z,51.40
2018-06-29T07:04:57.785Z,51.79
2018-06-29T07:05:57.964Z,51.89
2018-06-29T07:06:58.137Z,51.70
2018-06-29T07:07:58.316Z,50.63
2018-06-29T07:08:58.486Z,50.63
2018-06-29T07:09:58.657Z,50.92
2018-06-29T07:10:58.832Z,50.43
2018-06-29T07:11:59.003Z,51.11
2018-06-29T07:12:59.224Z,50.92
2018-06-29T07:13:59.334Z,50.63
2018-06-29T07:14:59.512Z,50.04
2018-06-29T07:15:59.680Z,50.26
2018-06-29T07:16:59.857Z,51.04
2018-06-29T07:18:00.027Z,50.46
2018-06-29T07:19:00.207Z,50.56
2018-06-29T07:20:00.377Z,49.58
2018-06-29T07:21:00.562Z,49.58
2018-06-29T07:22:00.736Z,49.97
2018-06-29T07:23:00.914Z,49.39
2018-06-29T07:24:01.081Z,49.39
2018-06-29T07:25:01.254Z,48.90
2018-06-29T07:26:01.434Z,47.93
2018-06-29T07:27:01.607Z,48.22
2018-06-29T07:28:01.799Z,49.00
2018-06-29T07:29:01.968Z,48.61
2018-06-29T07:30:02.156Z,48.71
2018-06-29T07:31:02.315Z,49.00
2018-06-29T07:32:02.484Z,49.32
2018-06-29T07:33:02.660Z,48.83
2018-06-29T07:34:02.836Z,49.12
2018-06-29T07:35:03.007Z,49.12
2018-06-29T07:36:03.182Z,48.73
2018-06-29T07:37:03.351Z,48.83
2018-06-29T07:38:03.525Z,47.96
2018-06-29T07:39:03.701Z,47.96
2018-06-29T07:40:03.874Z,48.34
2018-06-29T07:41:04.051Z,48.05
2018-06-29T07:42:04.219Z,48.25
2018-06-29T07:43:04.399Z,48.63
2018-06-29T07:44:04.575Z,47.47
2018-06-29T07:45:04.747Z,47.47
2018-06-29T07:46:04.915Z,47.27
2018-06-29T07:47:05.100Z,46.13
2018-06-29T07:48:05.272Z,44.86
2018-06-29T07:49:05.451Z,45.54
2018-06-29T07:50:05.630Z,46.03
2018-06-29T07:51:05.798Z,45.84
2018-06-29T07:52:05.981Z,45.74
2018-06-29T07:53:06.150Z,44.96
2018-06-29T07:54:06.330Z,43.99
2018-06-29T07:55:06.503Z,43.21
2018-06-29T07:56:06.730Z,43.30
2018-06-29T07:57:06.853Z,42.04
2018-06-29T07:58:07.091Z,41.46
2018-06-29T07:59:07.221Z,41.94
2018-06-29T08:00:07.378Z,41.65
2018-06-29T08:01:07.554Z,41.16
2018-06-29T08:02:07.727Z,41.46
2018-06-29T08:03:07.916Z,40.48
2018-06-29T08:04:08.095Z,39.90
2018-06-29T08:05:08.277Z,39.61
2018-06-29T08:06:08.452Z,39.61
2018-06-29T08:07:08.628Z,39.70
2018-06-29T08:08:08.844Z,39.31
2018-06-29T08:09:08.973Z,39.61
2018-06-29T08:10:09.155Z,39.22
2018-06-29T08:11:09.336Z,39.51
2018-06-29T08:12:09.512Z,39.31
2018-06-29T08:13:09.687Z,39.22
2018-06-29T08:14:09.876Z,39.62
2018-06-29T08:15:10.045Z,40.50
2018-06-29T08:16:10.214Z,40.21
2018-06-29T08:17:10.392Z,40.31
2018-06-29T08:18:10.563Z,39.92
2018-06-29T08:19:10.736Z,39.72
2018-06-29T08:20:10.920Z,39.82
2018-06-29T08:21:11.097Z,39.92
2018-06-29T08:22:11.271Z,40.01
2018-06-29T08:23:11.449Z,40.31
2018-06-29T08:24:11.625Z,39.92
2018-06-29T08:25:11.811Z,39.43
2018-06-29T08:26:11.975Z,39.84
2018-06-29T08:27:12.151Z,39.94
2018-06-29T08:28:12.330Z,40.23
2018-06-29T08:29:12.503Z,39.75
2018-06-29T08:30:12.672Z,39.45
2018-06-29T08:31:12.852Z,39.47
2018-06-29T08:32:13.026Z,39.36
2018-06-29T08:33:13.203Z,39.47
2018-06-29T08:34:13.378Z,38.79
2018-06-29T08:35:13.555Z,38.79
2018-06-29T08:36:13.728Z,38.69
2018-06-29T08:37:13.909Z,38.20
2018-06-29T08:38:14.085Z,38.30
2018-06-29T08:39:14.260Z,37.91
2018-06-29T08:40:14.435Z,38.01
2018-06-29T08:41:14.611Z,38.01
2018-06-29T08:42:14.785Z,38.69
2018-06-29T08:43:14.953Z,38.89
2018-06-29T08:44:15.181Z,38.59
2018-06-29T08:45:15.313Z,38.79
2018-06-29T08:46:15.486Z,38.89
2018-06-29T08:47:15.666Z,38.89
2018-06-29T08:48:15.838Z,38.49
2018-06-29T08:49:16.016Z,37.52
2018-06-29T08:50:16.185Z,37.43
2018-06-29T08:51:16.361Z,37.33
2018-06-29T08:52:16.610Z,37.33
2018-06-29T08:53:16.715Z,37.62
2018-06-29T08:54:16.899Z,37.71
2018-06-29T08:55:17.076Z,37.62
2018-06-29T08:56:17.250Z,38.12
2018-06-29T08:57:17.422Z,38.02
2018-06-29T08:58:17.603Z,38.04
2018-06-29T08:59:17.773Z,37.95
2018-06-29T09:00:17.959Z,37.65
2018-06-29T09:01:18.126Z,37.37
2018-06-29T09:02:18.312Z,36.19
2018-06-29T09:03:18.481Z,36.19
2018-06-29T09:04:18.661Z,36.29
2018-06-29T09:05:18.835Z,35.90
2018-06-29T09:06:19.014Z,35.80
2018-06-29T09:07:19.186Z,35.82
2018-06-29T09:08:19.363Z,35.72
2018-06-29T09:09:19.554Z,36.11
2018-06-29T09:10:19.731Z,36.21
2018-06-29T09:11:19.902Z,36.41
2018-06-29T09:12:20.085Z,36.41
2018-06-29T09:13:20.253Z,36.80
2018-06-29T09:14:20.428Z,36.11
2018-06-29T09:15:20.608Z,34.77
2018-06-29T09:16:20.786Z,34.08
2018-06-29T09:17:20.960Z,33.98
2018-06-29T09:18:21.135Z,33.59
2018-06-29T09:19:21.310Z,33.98
2018-06-29T09:20:21.484Z,34.08
2018-06-29T09:21:21.666Z,34.47
2018-06-29T09:22:21.841Z,33.51
2018-06-29T09:23:22.021Z,34.29
2018-06-29T09:24:22.258Z,33.33
2018-06-29T09:25:22.372Z,32.75
2018-06-29T09:26:22.547Z,32.45
2018-06-29T09:27:22.719Z,31.78
2018-06-29T09:28:22.890Z,31.52
2018-06-29T09:29:23.066Z,30.27
2018-06-29T09:30:23.242Z,28.65
2018-06-29T09:31:23.419Z,27.51
2018-06-29T09:32:23.600Z,26.09
2018-06-29T09:33:23.782Z,24.45
2018-06-29T09:34:23.954Z,22.42
2018-06-29T09:35:24.137Z,21.47
2018-06-29T09:36:24.371Z,20.61
2018-06-29T09:37:24.491Z,19.92
2018-06-29T09:38:24.675Z,18.95
2018-06-29T09:39:24.856Z,17.97
2018-06-29T09:40:25.033Z,18.39
2018-06-29T09:41:25.215Z,18.10
2018-06-29T09:42:25.423Z,17.81
2018-06-29T09:43:25.607Z,16.82
2018-06-29T09:44:25.752Z,16.72
2018-06-29T09:45:25.946Z,16.53
2018-06-29T09:46:26.131Z,16.64
2018-06-29T09:47:26.316Z,16.64
2018-06-29T09:48:26.492Z,16.56
2018-06-29T09:49:26.682Z,15.67
2018-06-29T09:50:26.865Z,15.17
2018-06-29T09:51:27.047Z,15.18
2018-06-29T09:52:27.234Z,14.58
2018-06-29T09:53:27.429Z,14.48
2018-06-29T09:54:27.614Z,14.39
2018-06-29T09:55:27.805Z,13.90
2018-06-29T09:56:27.991Z,13.79
2018-06-29T09:57:28.176Z,14.09
2018-06-29T09:58:28.362Z,14.11
2018-06-29T09:59:28.550Z,13.80
2018-06-29T10:00:28.734Z,13.41
2018-06-29T10:01:29.043Z,13.42
2018-06-29T10:02:31.690Z,13.42
2018-06-29T10:03:29.307Z,12.82
2018-06-29T10:04:29.495Z,13.41
2018-06-29T10:05:29.687Z,13.22
2018-06-29T10:06:29.892Z,13.32
2018-06-29T10:07:30.060Z,12.92
2018-06-29T10:08:30.253Z,13.03
2018-06-29T10:09:30.446Z,12.43
2018-06-29T10:10:30.639Z,12.64
2018-06-29T10:11:30.825Z,12.54
2018-06-29T10:12:31.012Z,12.34
2018-06-29T10:13:31.205Z,12.24
2018-06-29T10:14:31.479Z,12.44
2018-06-29T10:15:31.596Z,12.04
2018-06-29T10:16:31.786Z,12.13
2018-06-29T10:17:31.966Z,12.33
2018-06-29T10:18:32.169Z,12.43
2018-06-29T10:19:32.402Z,12.13
2018-06-29T10:20:32.547Z,12.14
2018-06-29T10:21:32.738Z,12.24
2018-06-29T10:22:33.022Z,11.44
2018-06-29T10:23:33.126Z,11.85
2018-06-29T10:24:33.309Z,11.55
2018-06-29T10:25:33.611Z,11.55
2018-06-29T10:26:33.692Z,11.25
2018-06-29T10:27:33.887Z,11.55
2018-06-29T10:28:34.088Z,11.25
2018-06-29T10:29:34.279Z,11.55
2018-06-29T10:30:34.471Z,10.65
2018-06-29T10:31:34.658Z,10.46
2018-06-29T10:32:34.850Z,10.55
2018-06-29T10:33:35.054Z,10.85
2018-06-29T10:34:35.243Z,11.07
2018-06-29T10:35:35.435Z,11.55
2018-06-29T10:36:35.630Z,11.55
2018-06-29T10:37:35.824Z,11.35
2018-06-29T10:38:36.018Z,11.85
2018-06-29T10:39:36.211Z,11.56
2018-06-29T10:40:36.403Z,11.37
2018-06-29T10:41:36.592Z,11.47
2018-06-29T10:42:36.786Z,11.57
2018-06-29T10:43:36.978Z,10.77
2018-06-29T10:44:37.177Z,11.57
2018-06-29T10:45:37.360Z,11.18
2018-06-29T10:46:37.564Z,10.77
2018-06-29T10:47:37.753Z,10.96
2018-06-29T10:48:37.953Z,11.46
2018-06-29T10:49:38.149Z,10.76
2018-06-29T10:50:38.347Z,11.07
2018-06-29T10:51:38.542Z,10.37
2018-06-29T10:52:38.729Z,10.68
2018-06-29T10:53:38.929Z,10.58
2018-06-29T10:54:39.123Z,10.08
2018-06-29T10:55:39.319Z,10.49
2018-06-29T10:56:39.512Z,10.50
2018-06-29T10:57:39.699Z,10.20
2018-06-29T10:58:39.956Z,10.49
2018-06-29T10:59:40.107Z,10.38
2018-06-29T11:00:40.295Z,10.78
2018-06-29T11:01:40.503Z,10.19
2018-06-29T11:02:40.694Z,9.48
2018-06-29T11:03:40.894Z,9.69
2018-06-29T11:04:41.088Z,9.59
2018-06-29T11:05:41.286Z,9.59
2018-06-29T11:06:41.483Z,9.39
2018-06-29T11:07:41.690Z,9.48
2018-06-29T11:08:41.876Z,10.09
2018-06-29T11:09:42.076Z,9.79
2018-06-29T11:10:42.276Z,9.49
2018-06-29T11:11:42.470Z,9.78
2018-06-29T11:12:42.670Z,10.38
2018-06-29T11:13:42.870Z,10.48
2018-06-29T11:14:43.066Z,10.39
2018-06-29T11:15:43.264Z,9.69
2018-06-29T11:16:43.457Z,9.78
2018-06-29T11:17:43.652Z,9.78
2018-06-29T11:18:43.851Z,9.19
2018-06-29T11:19:44.053Z,9.29
2018-06-29T11:20:44.252Z,9.19
2018-06-29T11:21:44.453Z,9.48
2018-06-29T11:22:44.648Z,9.68
2018-06-29T11:23:44.848Z,9.69
2018-06-29T11:24:45.041Z,9.29
2018-06-29T11:25:45.250Z,9.19
2018-06-29T11:26:45.448Z,9.70
2018-06-29T11:27:45.645Z,10.50
2018-06-29T11:28:45.843Z,9.80
2018-06-29T11:29:46.039Z,9.59
2018-06-29T11:30:46.238Z,9.40
2018-06-29T11:31:46.433Z,9.10
2018-06-29T11:32:46.633Z,9.30
2018-06-29T11:33:46.827Z,8.50
2018-06-29T11:34:47.036Z,8.29
2018-06-29T11:35:47.226Z,8.19
2018-06-29T11:36:47.481Z,8.70
2018-06-29T11:37:47.631Z,8.30
2018-06-29T11:38:47.817Z,8.30
2018-06-29T11:39:48.012Z,8.20
2018-06-29T11:40:48.214Z,7.90
2018-06-29T11:41:48.418Z,8.30
2018-06-29T11:42:48.615Z,8.39
2018-06-29T11:43:48.818Z,8.70
2018-06-29T11:44:49.016Z,8.49
2018-06-29T11:45:49.211Z,9.29
2018-06-29T11:46:49.407Z,9.20
2018-06-29T11:47:49.608Z,8.49
2018-06-29T11:48:49.806Z,9.50
2018-06-29T11:49:50.009Z,9.20
2018-06-29T11:50:50.208Z,9.30
2018-06-29T11:51:50.406Z,9.20
2018-06-29T11:52:50.647Z,8.69
2018-06-29T11:53:50.808Z,9.09
2018-06-29T11:54:51.000Z,9.20
2018-06-29T11:55:51.216Z,8.69
2018-06-29T11:56:51.414Z,8.89
2018-06-29T11:57:51.613Z,8.90
2018-06-29T11:58:51.816Z,8.48
2018-06-29T11:59:52.021Z,9.20
2018-06-29T12:00:52.234Z,9.20
2018-06-29T12:01:52.430Z,9.09
2018-06-29T12:02:52.640Z,9.30
2018-06-29T12:03:52.828Z,9.40
2018-06-29T12:04:53.032Z,9.20
2018-06-29T12:05:53.243Z,8.91
2018-06-29T12:06:53.519Z,8.60
2018-06-29T12:07:53.620Z,8.80
2018-06-29T12:08:53.822Z,8.39
2018-06-29T12:09:54.012Z,8.49
2018-06-29T12:10:54.216Z,8.70
2018-06-29T12:11:56.084Z,8.71
2018-06-29T12:12:54.543Z,8.79
2018-06-29T12:13:54.747Z,8.50
2018-06-29T12:14:54.958Z,8.20
2018-06-29T12:15:55.147Z,8.30
2018-06-29T12:16:55.353Z,8.30
2018-06-29T12:17:55.552Z,8.50
2018-06-29T12:18:55.747Z,8.50
2018-06-29T12:19:55.947Z,8.59
2018-06-29T12:20:56.146Z,8.80
2018-06-29T12:21:56.399Z,8.19
2018-06-29T12:22:56.599Z,8.40
2018-06-29T12:23:56.800Z,8.50
2018-06-29T12:24:57.003Z,8.31
2018-06-29T12:25:57.200Z,8.20
2018-06-29T12:26:57.405Z,8.69
2018-06-29T12:27:58.397Z,9.09
2018-06-29T12:28:57.798Z,8.90
2018-06-29T12:29:58.001Z,9.41
2018-06-29T12:30:58.194Z,9.09
2018-06-29T12:31:58.398Z,9.19
2018-06-29T12:32:58.599Z,9.20
2018-06-29T12:33:58.812Z,9.21
2018-06-29T12:34:59.039Z,8.81
2018-06-29T12:36:52.381Z,8.21
2018-06-29T12:37:52.688Z,8.31
2018-06-29T12:38:53.005Z,8.11
2018-06-29T12:39:52.996Z,8.00
2018-06-29T12:40:53.580Z,8.20
2018-06-29T12:41:53.484Z,8.30
2018-06-29T12:42:54.025Z,8.50
2018-06-29T12:43:54.463Z,8.70
2018-06-29T12:44:54.143Z,8.79
2018-06-29T12:45:54.575Z,8.89
2018-06-29T12:46:54.436Z,9.67
2018-06-29T12:47:54.767Z,10.55
2018-06-29T12:48:55.094Z,11.74
2018-06-29T12:49:55.041Z,12.71
2018-06-29T12:50:55.362Z,12.81
2018-06-29T12:51:55.425Z,13.59
2018-06-29T12:52:55.596Z,13.78
2018-06-29T12:53:55.791Z,14.67
2018-06-29T12:54:55.986Z,15.24
2018-06-29T12:55:56.224Z,15.72
2018-06-29T12:56:56.372Z,16.51
2018-06-29T12:57:56.632Z,16.51
2018-06-29T12:58:56.753Z,16.90
2018-06-29T12:59:56.949Z,16.39